createdAt,value
2019-01-20T00:00:47.205Z,-2.40
2019-01-20T00:03:13.191Z,-2.40
2019-01-20T00:05:39.193Z,-2.20
2019-01-20T00:08:05.175Z,-2.20
2019-01-20T00:10:31.211Z,-2.00
2019-01-20T00:12:57.245Z,-2.20
2019-01-20T00:15:23.229Z,-2.30
2019-01-20T00:17:49.322Z,-2.30
2019-01-20T00:20:15.402Z,-2.40
2019-01-20T00:22:41.346Z,-2.60
2019-01-20T00:25:07.390Z,-2.50
2019-01-20T00:27:33.374Z,-2.40
2019-01-20T00:29:59.352Z,-2.40
2019-01-20T00:32:25.359Z,-2.30
2019-01-20T00:34:51.384Z,-2.40
2019-01-20T00:37:17.410Z,-2.30
2019-01-20T00:39:43.415Z,-2.40
2019-01-20T00:42:09.382Z,-2.40
2019-01-20T00:44:35.375Z,-2.40
2019-01-20T00:47:01.397Z,-2.40
2019-01-20T00:49:27.393Z,-2.40
2019-01-20T00:51:53.415Z,-2.30
2019-01-20T00:54:19.408Z,-2.40
2019-01-20T00:56:45.402Z,-2.40
2019-01-20T00:59:11.414Z,-2.40
2019-01-20T01:01:37.401Z,-2.40
2019-01-20T01:04:03.510Z,-2.30
2019-01-20T01:06:29.511Z,-2.30
2019-01-20T01:08:55.503Z,-2.20
2019-01-20T01:11:21.507Z,-2.20
2019-01-20T01:13:47.488Z,-2.10
2019-01-20T01:16:13.470Z,-2.40
2019-01-20T01:18:39.490Z,-2.20
2019-01-20T01:21:05.481Z,-2.20
2019-01-20T01:23:31.474Z,-1.90
2019-01-20T01:25:57.504Z,-1.80
2019-01-20T01:28:23.500Z,-1.70
2019-01-20T01:30:49.509Z,-1.80
2019-01-20T01:33:15.502Z,-1.80
2019-01-20T01:35:41.516Z,-1.80
2019-01-20T01:38:07.499Z,-1.80
2019-01-20T01:40:33.531Z,-1.70
2019-01-20T01:42:59.558Z,-1.70
2019-01-20T01:45:25.535Z,-1.60
2019-01-20T01:47:51.581Z,-1.60
2019-01-20T01:50:17.587Z,-1.70
2019-01-20T01:52:43.570Z,-2.00
2019-01-20T01:55:09.577Z,-2.10
2019-01-20T01:57:35.572Z,-2.20
2019-01-20T02:00:01.586Z,-2.20
2019-01-20T02:02:27.565Z,-2.00
2019-01-20T02:04:53.567Z,-2.00
2019-01-20T02:07:19.545Z,-2.00
2019-01-20T02:09:45.543Z,-1.90
2019-01-20T02:12:11.572Z,-1.80
2019-01-20T02:14:37.566Z,-1.90
2019-01-20T02:17:03.532Z,-1.90
2019-01-20T02:19:29.538Z,-2.10
2019-01-20T02:21:55.509Z,-2.50
2019-01-20T02:24:21.618Z,-2.50
2019-01-20T02:26:47.597Z,-2.50
2019-01-20T02:29:13.600Z,-2.50
2019-01-20T02:31:39.623Z,-2.50
2019-01-20T02:34:05.610Z,-2.40
2019-01-20T02:36:31.614Z,-2.40
2019-01-20T02:38:57.614Z,-2.60
2019-01-20T02:41:23.582Z,-2.60
2019-01-20T02:43:49.571Z,-2.60
2019-01-20T02:46:15.574Z,-2.50
2019-01-20T02:48:41.554Z,-2.40
2019-01-20T02:51:07.549Z,-2.40
2019-01-20T02:53:33.549Z,-2.40
2019-01-20T02:55:59.516Z,-2.30
2019-01-20T02:58:25.519Z,-2.40
2019-01-20T03:00:51.491Z,-2.50
2019-01-20T03:03:17.473Z,-2.50
2019-01-20T03:05:43.475Z,-2.60
2019-01-20T03:08:09.447Z,-2.50
2019-01-20T03:10:35.452Z,-2.40
2019-01-20T03:13:01.439Z,-2.40
2019-01-20T03:15:29.317Z,-2.50
2019-01-20T03:17:53.514Z,-2.60
2019-01-20T03:20:19.588Z,-2.90
2019-01-20T03:22:45.673Z,-2.90
2019-01-20T03:25:11.723Z,-3.00
2019-01-20T03:27:37.734Z,-3.10
2019-01-20T03:30:05.586Z,-3.10
2019-01-20T03:32:31.703Z,-3.20
2019-01-20T03:34:57.709Z,-3.10
2019-01-20T03:37:23.715Z,-3.10
2019-01-20T03:39:49.720Z,-3.10
2019-01-20T03:42:15.762Z,-3.00
2019-01-20T03:44:41.784Z,-3.00
2019-01-20T03:47:07.857Z,-3.00
2019-01-20T03:49:33.911Z,-3.10
2019-01-20T03:51:59.927Z,-3.10
2019-01-20T03:54:25.912Z,-3.10
2019-01-20T03:57:02.656Z,-3.30
2019-01-20T03:59:29.395Z,-3.40
2019-01-20T04:01:56.130Z,-3.50
2019-01-20T04:04:22.887Z,-3.60
2019-01-20T04:06:48.899Z,-3.60
2019-01-20T04:09:15.638Z,-3.70
2019-01-20T04:11:42.387Z,-3.80
2019-01-20T04:14:08.394Z,-3.90
2019-01-20T04:16:34.409Z,-3.60
2019-01-20T04:19:00.402Z,-3.70
2019-01-20T04:21:26.423Z,-3.60
2019-01-20T04:23:52.447Z,-3.60
2019-01-20T04:26:18.456Z,-3.80
2019-01-20T04:28:44.447Z,-3.90
2019-01-20T04:31:10.569Z,-4.00
2019-01-20T04:33:36.550Z,-4.00
2019-01-20T04:36:02.543Z,-3.90
2019-01-20T04:38:28.551Z,-4.00
2019-01-20T04:40:54.548Z,-3.90
2019-01-20T04:43:20.540Z,-3.80
2019-01-20T04:45:46.539Z,-3.70
2019-01-20T04:48:12.561Z,-3.80
2019-01-20T04:50:38.558Z,-3.70
2019-01-20T04:53:04.533Z,-3.60
2019-01-20T04:55:30.549Z,-3.60
2019-01-20T04:57:56.554Z,-3.70
2019-01-20T05:00:23.479Z,-3.60
2019-01-20T05:02:49.510Z,-3.70
2019-01-20T05:05:15.518Z,-3.60
2019-01-20T05:07:41.521Z,-3.40
2019-01-20T05:10:08.522Z,-3.50
2019-01-20T05:12:37.789Z,-3.40
2019-01-20T05:15:00.685Z,-3.50
2019-01-20T05:17:26.890Z,-3.50
2019-01-20T05:19:52.962Z,-3.40
2019-01-20T05:22:18.987Z,-3.60
2019-01-20T05:24:45.010Z,-3.70
2019-01-20T05:27:11.017Z,-3.80
2019-01-20T05:29:37.011Z,-3.80
2019-01-20T05:32:03.024Z,-3.90
2019-01-20T05:34:29.015Z,-4.00
2019-01-20T05:36:55.011Z,-4.00
2019-01-20T05:39:21.011Z,-4.00
2019-01-20T05:41:46.995Z,-4.00
2019-01-20T05:44:12.994Z,-4.00
2019-01-20T05:46:39.002Z,-4.10
2019-01-20T05:49:37.308Z,-4.00
2019-01-20T05:52:03.328Z,-3.90
2019-01-20T05:54:29.358Z,-3.90
2019-01-20T05:56:55.369Z,-3.60
2019-01-20T05:59:21.448Z,-3.70
2019-01-20T06:01:47.476Z,-3.70
2019-01-20T06:04:13.557Z,-3.90
2019-01-20T06:06:39.574Z,-3.90
2019-01-20T06:09:05.658Z,-3.70
2019-01-20T06:11:31.704Z,-3.70
2019-01-20T06:13:57.741Z,-3.60
2019-01-20T06:16:23.747Z,-3.60
2019-01-20T06:18:49.759Z,-3.70
2019-01-20T06:21:15.791Z,-3.80
2019-01-20T06:23:41.774Z,-3.80
2019-01-20T06:26:07.773Z,-3.90
2019-01-20T06:28:33.874Z,-4.10
2019-01-20T06:30:59.866Z,-4.00
2019-01-20T06:33:25.867Z,-4.00
2019-01-20T06:35:51.885Z,-4.00
2019-01-20T06:38:17.868Z,-4.10
2019-01-20T06:40:43.866Z,-4.20
2019-01-20T06:43:09.880Z,-4.10
2019-01-20T06:45:35.870Z,-4.20
2019-01-20T06:48:01.855Z,-4.30
2019-01-20T06:50:27.872Z,-4.30
2019-01-20T06:52:53.863Z,-4.50
2019-01-20T06:55:19.851Z,-4.50
2019-01-20T06:57:45.866Z,-4.30
2019-01-20T07:00:16.686Z,-4.20
2019-01-20T07:02:42.674Z,-4.20
2019-01-20T07:05:08.687Z,-4.20
2019-01-20T07:07:34.699Z,-4.10
2019-01-20T07:10:00.742Z,-3.90
2019-01-20T07:12:26.739Z,-3.80
2019-01-20T07:14:52.720Z,-3.80
2019-01-20T07:17:18.710Z,-3.70
2019-01-20T07:19:44.746Z,-3.50
2019-01-20T07:22:10.774Z,-3.50
2019-01-20T07:24:36.766Z,-3.50
2019-01-20T07:27:02.769Z,-3.30
2019-01-20T07:29:28.772Z,-3.50
2019-01-20T07:31:54.801Z,-3.50
2019-01-20T07:34:20.786Z,-3.50
2019-01-20T07:36:46.784Z,-3.40
2019-01-20T07:39:12.884Z,-3.20
2019-01-20T07:41:38.879Z,-3.20
2019-01-20T07:44:04.854Z,-3.00
2019-01-20T07:46:30.937Z,-3.10
2019-01-20T07:48:56.932Z,-3.20
2019-01-20T07:51:22.931Z,-3.20
2019-01-20T07:53:48.939Z,-3.10
2019-01-20T07:56:14.967Z,-3.20
2019-01-20T07:58:40.983Z,-3.10
2019-01-20T08:01:06.981Z,-3.00
2019-01-20T08:03:32.999Z,-2.90
2019-01-20T08:05:58.992Z,-2.70
2019-01-20T08:08:24.970Z,-2.80
2019-01-20T08:10:50.968Z,-2.80
2019-01-20T08:13:24.063Z,-2.50
2019-01-20T08:15:43.011Z,-2.00
2019-01-20T08:18:09.008Z,-1.50
2019-01-20T08:20:34.990Z,-1.20
2019-01-20T08:23:01.030Z,-0.70
2019-01-20T08:25:27.015Z,-0.50
2019-01-20T08:27:53.023Z,0.40
2019-01-20T08:30:19.935Z,0.70
2019-01-20T08:32:45.946Z,1.50
2019-01-20T08:35:11.935Z,1.00
2019-01-20T08:37:37.940Z,1.80
2019-01-20T08:40:03.928Z,2.00
2019-01-20T08:42:29.935Z,1.20
2019-01-20T08:44:55.986Z,1.30
2019-01-20T08:47:22.024Z,0.60
2019-01-20T08:49:48.014Z,1.60
2019-01-20T08:52:14.014Z,1.40
2019-01-20T08:54:40.012Z,2.20
2019-01-20T08:57:06.028Z,1.40
2019-01-20T08:59:32.014Z,1.50
2019-01-20T09:01:58.158Z,1.30
2019-01-20T09:04:24.203Z,0.90
2019-01-20T09:06:50.224Z,0.90
2019-01-20T09:09:16.247Z,0.30
2019-01-20T09:11:42.271Z,-0.10
2019-01-20T09:14:08.242Z,-0.30
2019-01-20T09:16:34.250Z,-0.30
2019-01-20T09:19:00.271Z,0.20
2019-01-20T09:21:26.386Z,0.20
2019-01-20T09:23:52.435Z,0.30
2019-01-20T09:26:18.513Z,0.90
2019-01-20T09:28:44.534Z,1.40
2019-01-20T09:31:10.568Z,1.10
2019-01-20T09:33:36.571Z,0.30
2019-01-20T09:36:02.601Z,-0.10
2019-01-20T09:38:28.636Z,-0.40
2019-01-20T09:40:54.695Z,-0.10
2019-01-20T09:43:27.570Z,0.20
2019-01-20T09:45:53.719Z,-0.30
2019-01-20T09:48:19.748Z,-0.50
2019-01-20T09:50:45.782Z,-0.70
2019-01-20T09:53:11.782Z,-1.10
2019-01-20T09:55:37.906Z,-1.10
2019-01-20T09:58:03.902Z,-0.50
2019-01-20T10:00:30.835Z,-0.60
2019-01-20T10:02:56.951Z,-0.60
2019-01-20T10:05:23.054Z,-0.30
2019-01-20T10:07:49.180Z,-0.30
2019-01-20T10:10:15.170Z,-0.20
2019-01-20T10:12:41.159Z,-0.30
2019-01-20T10:15:08.011Z,-0.40
2019-01-20T10:17:34.014Z,-0.40
2019-01-20T10:20:00.026Z,0.00
2019-01-20T10:22:26.087Z,-0.10
2019-01-20T10:24:52.071Z,0.10
2019-01-20T10:27:18.091Z,-0.10
2019-01-20T10:29:44.107Z,0.20
2019-01-20T10:32:10.130Z,0.40
2019-01-20T10:34:36.150Z,0.60
2019-01-20T10:37:02.159Z,0.20
2019-01-20T10:39:28.222Z,-0.30
2019-01-20T10:41:54.274Z,0.30
2019-01-20T10:44:27.240Z,0.60
2019-01-20T10:46:53.237Z,0.00
2019-01-20T10:49:19.258Z,0.30
2019-01-20T10:51:45.321Z,0.60
2019-01-20T10:54:11.331Z,0.40
2019-01-20T10:56:37.382Z,0.10
2019-01-20T10:59:03.403Z,1.00
2019-01-20T11:01:29.436Z,0.60
2019-01-20T11:03:55.451Z,0.10
2019-01-20T11:06:21.452Z,-0.30
2019-01-20T11:08:47.459Z,-0.30
2019-01-20T11:11:13.480Z,0.20
2019-01-20T11:13:39.483Z,-0.50
2019-01-20T11:16:05.522Z,0.00
2019-01-20T11:18:31.533Z,0.60
2019-01-20T11:20:57.520Z,0.50
2019-01-20T11:23:23.573Z,0.50
2019-01-20T11:25:49.611Z,0.50
2019-01-20T11:28:15.627Z,0.70
2019-01-20T11:30:41.674Z,0.10
2019-01-20T11:33:07.747Z,0.20
2019-01-20T11:38:05.671Z,0.20
2019-01-20T11:40:31.854Z,0.60
2019-01-20T11:42:57.962Z,1.00
2019-01-20T11:45:23.961Z,0.50
2019-01-20T11:47:49.974Z,0.50
2019-01-20T11:50:15.986Z,0.50
2019-01-20T11:52:42.063Z,0.90
2019-01-20T11:55:08.063Z,1.00
2019-01-20T11:57:34.070Z,1.30
2019-01-20T12:00:00.091Z,1.50
2019-01-20T12:02:26.070Z,1.50
2019-01-20T12:04:52.072Z,1.60
2019-01-20T12:07:18.090Z,1.90
2019-01-20T12:09:44.090Z,2.20
2019-01-20T12:12:10.098Z,2.30
2019-01-20T12:14:36.156Z,2.70
2019-01-20T12:17:02.217Z,2.20
2019-01-20T12:19:28.218Z,2.50
2019-01-20T12:21:54.223Z,2.50
2019-01-20T12:24:20.253Z,2.50
2019-01-20T12:26:46.268Z,2.40
2019-01-20T12:29:12.258Z,2.20
2019-01-20T12:31:38.267Z,1.50
2019-01-20T12:34:04.326Z,2.20
2019-01-20T12:36:30.360Z,2.10
2019-01-20T12:38:56.431Z,1.60
2019-01-20T12:41:22.447Z,1.70
2019-01-20T12:43:48.479Z,1.70
2019-01-20T12:46:14.536Z,1.60
2019-01-20T12:48:40.532Z,1.50
2019-01-20T12:51:06.533Z,1.30
2019-01-20T12:53:32.527Z,1.00
2019-01-20T12:55:58.563Z,1.50
2019-01-20T12:58:24.567Z,1.20
2019-01-20T13:00:50.571Z,1.70
2019-01-20T13:03:16.579Z,1.90
2019-01-20T13:05:42.577Z,1.70
2019-01-20T13:08:08.599Z,1.80
2019-01-20T13:10:34.630Z,2.10
2019-01-20T13:13:00.667Z,1.80
2019-01-20T13:15:26.681Z,1.90
2019-01-20T13:17:52.731Z,2.00
2019-01-20T13:20:19.616Z,2.30
2019-01-20T13:22:45.646Z,2.20
2019-01-20T13:25:11.669Z,2.10
2019-01-20T13:27:37.719Z,2.40
2019-01-20T13:30:03.739Z,2.40
2019-01-20T13:32:29.785Z,2.40
2019-01-20T13:34:55.789Z,2.20
2019-01-20T13:37:21.844Z,1.90
2019-01-20T13:39:47.885Z,2.30
2019-01-20T13:42:13.882Z,2.20
2019-01-20T13:44:46.067Z,2.30
2019-01-20T13:47:06.097Z,2.40
2019-01-20T13:49:32.130Z,2.20
2019-01-20T13:51:58.278Z,2.30
2019-01-20T13:54:24.342Z,2.30
2019-01-20T13:56:50.364Z,2.40
2019-01-20T13:59:16.364Z,2.20
2019-01-20T14:01:42.382Z,2.40
2019-01-20T14:04:08.389Z,2.40
2019-01-20T14:06:34.413Z,2.70
2019-01-20T14:09:00.460Z,2.90
2019-01-20T14:11:26.456Z,2.70
2019-01-20T14:13:52.485Z,2.50
2019-01-20T14:16:18.511Z,2.20
2019-01-20T14:18:45.305Z,2.40
2019-01-20T14:21:10.515Z,2.00
2019-01-20T14:23:36.565Z,2.40
2019-01-20T14:26:02.621Z,2.10
2019-01-20T14:28:28.646Z,2.00
2019-01-20T14:30:54.687Z,2.00
2019-01-20T14:33:20.835Z,2.20
2019-01-20T14:35:46.903Z,2.00
2019-01-20T14:38:12.907Z,1.90
2019-01-20T14:40:38.987Z,2.10
2019-01-20T14:43:05.084Z,1.90
2019-01-20T14:45:31.093Z,2.10
2019-01-20T14:47:57.115Z,2.30
2019-01-20T14:50:24.996Z,2.50
2019-01-20T14:52:51.016Z,2.30
2019-01-20T14:55:17.142Z,2.50
2019-01-20T14:57:43.284Z,2.30
2019-01-20T15:00:10.168Z,2.50
2019-01-20T15:02:36.259Z,2.50
2019-01-20T15:05:02.323Z,2.30
2019-01-20T15:07:29.419Z,2.30
2019-01-20T15:09:55.532Z,2.00
2019-01-20T15:12:21.592Z,1.50
2019-01-20T15:14:47.678Z,2.00
2019-01-20T15:17:13.811Z,1.80
2019-01-20T15:19:39.912Z,1.80
2019-01-20T15:22:05.951Z,2.00
2019-01-20T15:24:31.992Z,2.00
2019-01-20T15:26:58.200Z,2.00
2019-01-20T15:29:24.237Z,2.00
2019-01-20T15:31:50.288Z,1.80
2019-01-20T15:34:16.360Z,1.70
2019-01-20T15:36:42.395Z,1.60
2019-01-20T15:39:08.398Z,1.60
2019-01-20T15:41:34.423Z,1.50
2019-01-20T15:44:00.429Z,1.50
2019-01-20T15:46:26.468Z,1.40
2019-01-20T15:48:59.439Z,1.40
2019-01-20T15:51:25.525Z,1.40
2019-01-20T15:53:51.584Z,1.40
2019-01-20T15:56:17.633Z,1.50
2019-01-20T15:58:43.610Z,1.60
2019-01-20T16:01:09.617Z,1.50
2019-01-20T16:03:35.614Z,1.50
2019-01-20T16:06:01.585Z,1.50
2019-01-20T16:08:27.557Z,1.50
2019-01-20T16:10:53.530Z,1.50
2019-01-20T16:13:19.536Z,1.40
2019-01-20T16:15:45.574Z,1.30
2019-01-20T16:18:14.386Z,1.30
2019-01-20T16:20:37.571Z,1.30
2019-01-20T16:23:03.614Z,1.30
2019-01-20T16:25:29.568Z,1.10
2019-01-20T16:27:55.537Z,1.10
2019-01-20T16:30:22.447Z,1.10
2019-01-20T16:32:49.347Z,1.00
2019-01-20T16:35:15.557Z,0.90
2019-01-20T16:37:41.587Z,0.90
2019-01-20T16:40:08.449Z,0.80
2019-01-20T16:42:34.453Z,0.80
2019-01-20T16:45:00.417Z,0.70
2019-01-20T16:47:26.455Z,0.70
2019-01-20T16:49:52.489Z,0.60
2019-01-20T16:52:18.489Z,0.60
2019-01-20T16:54:44.540Z,0.50
2019-01-20T16:57:10.537Z,0.50
2019-01-20T16:59:36.556Z,0.30
2019-01-20T17:02:02.529Z,0.40
2019-01-20T17:04:29.207Z,0.20
2019-01-20T17:06:54.742Z,0.10
2019-01-20T17:09:20.726Z,0.10
2019-01-20T17:11:46.717Z,0.00
2019-01-20T17:14:12.726Z,-0.10
2019-01-20T17:16:39.469Z,-0.10
2019-01-20T17:19:05.645Z,-0.10
2019-01-20T17:21:31.695Z,0.00
2019-01-20T17:23:57.688Z,0.10
2019-01-20T17:26:23.785Z,0.10
2019-01-20T17:28:49.821Z,0.10
2019-01-20T17:31:15.860Z,0.00
2019-01-20T17:33:41.891Z,0.00
2019-01-20T17:36:07.922Z,-0.10
2019-01-20T17:38:33.946Z,-0.20
2019-01-20T17:40:59.897Z,-0.10
2019-01-20T17:43:25.898Z,-0.30
2019-01-20T17:45:51.890Z,-0.30
2019-01-20T17:48:17.885Z,-0.30
2019-01-20T17:50:43.904Z,-0.40
2019-01-20T17:53:10.622Z,-0.40
2019-01-20T17:55:36.639Z,-0.40
2019-01-20T17:58:03.375Z,-0.50
2019-01-20T18:00:29.355Z,-0.50
2019-01-20T18:02:55.373Z,-0.50
2019-01-20T18:05:21.354Z,-0.40
2019-01-20T18:07:48.093Z,-0.20
2019-01-20T18:10:14.837Z,-0.20
2019-01-20T18:12:40.973Z,-0.20
2019-01-20T18:15:07.905Z,-0.20
2019-01-20T18:17:33.921Z,-0.30
2019-01-20T18:19:59.943Z,-0.40
2019-01-20T18:22:25.948Z,-0.40
2019-01-20T18:24:51.952Z,-0.60
2019-01-20T18:27:17.922Z,-0.60
2019-01-20T18:29:43.949Z,-0.60
2019-01-20T18:32:09.929Z,-0.60
2019-01-20T18:34:36.303Z,-0.60
2019-01-20T18:37:02.669Z,-0.60
2019-01-20T18:39:28.951Z,-0.60
2019-01-20T18:41:55.362Z,-0.50
2019-01-20T18:44:21.943Z,-0.40
2019-01-20T18:46:48.574Z,-0.50
2019-01-20T18:49:15.840Z,-0.40
2019-01-20T18:51:41.968Z,-0.30
2019-01-20T18:54:08.578Z,-0.30
2019-01-20T18:56:35.059Z,-0.30
2019-01-20T18:59:01.766Z,-0.30
2019-01-20T19:01:28.362Z,-0.40
2019-01-20T19:03:54.731Z,-0.50
2019-01-20T19:06:20.922Z,-0.50
2019-01-20T19:08:47.244Z,-0.40
2019-01-20T19:11:13.863Z,-0.60
2019-01-20T19:13:40.572Z,-0.50
2019-01-20T19:16:09.094Z,-0.50
2019-01-20T19:18:33.711Z,-0.40
2019-01-20T19:21:01.018Z,-0.50
2019-01-20T19:23:27.558Z,-0.60
2019-01-20T19:25:53.888Z,-0.60
2019-01-20T19:28:20.723Z,-0.70
2019-01-20T19:30:47.332Z,-0.70
2019-01-20T19:33:13.843Z,-0.70
2019-01-20T19:35:41.151Z,-0.70
2019-01-20T19:38:07.731Z,-0.80
2019-01-20T19:40:34.692Z,-0.70
2019-01-20T19:43:01.797Z,-0.80
2019-01-20T19:45:28.851Z,-0.80
2019-01-20T19:47:55.969Z,-1.00
2019-01-20T19:50:23.067Z,-0.90
2019-01-20T19:52:49.509Z,-0.90
2019-01-20T19:55:20.090Z,-0.90
2019-01-20T19:57:47.351Z,-0.80
2019-01-20T20:00:18.788Z,-0.70
2019-01-20T20:02:45.423Z,-0.80
2019-01-20T20:05:11.927Z,-0.70
2019-01-20T20:07:39.206Z,-0.80
2019-01-20T20:10:06.482Z,-0.80
2019-01-20T20:12:33.650Z,-0.80
2019-01-20T20:15:00.506Z,-0.80
2019-01-20T20:17:27.701Z,-0.70
2019-01-20T20:19:55.194Z,-0.70
2019-01-20T20:22:23.058Z,-0.80
2019-01-20T20:24:50.873Z,-0.80
2019-01-20T20:27:18.084Z,-0.90
2019-01-20T20:29:45.037Z,-0.90
2019-01-20T20:32:11.573Z,-0.90
2019-01-20T20:34:38.242Z,-0.90
2019-01-20T20:37:04.722Z,-1.00
2019-01-20T20:39:31.854Z,-1.10
2019-01-20T20:41:58.334Z,-1.20
2019-01-20T20:44:24.875Z,-1.10
2019-01-20T20:46:52.502Z,-1.10
2019-01-20T20:49:19.132Z,-1.10
2019-01-20T20:51:46.181Z,-1.10
2019-01-20T20:54:12.811Z,-1.10
2019-01-20T20:56:39.790Z,-1.10
2019-01-20T20:59:06.910Z,-1.00
2019-01-20T21:01:33.148Z,-1.10
2019-01-20T21:03:59.364Z,-1.10
2019-01-20T21:06:25.597Z,-1.20
2019-01-20T21:08:51.960Z,-1.10
2019-01-20T21:11:18.529Z,-1.20
2019-01-20T21:13:44.711Z,-1.30
2019-01-20T21:16:10.889Z,-1.30
2019-01-20T21:18:37.054Z,-1.30
2019-01-20T21:21:03.454Z,-1.30
2019-01-20T21:23:29.705Z,-1.30
2019-01-20T21:25:55.907Z,-1.30
2019-01-20T21:28:22.035Z,-1.20
2019-01-20T21:30:48.275Z,-1.30
2019-01-20T21:33:14.421Z,-1.40
2019-01-20T21:35:40.612Z,-1.50
2019-01-20T21:38:07.199Z,-1.50
2019-01-20T21:40:33.242Z,-1.60
2019-01-20T21:42:59.400Z,-1.50
2019-01-20T21:45:25.722Z,-1.60
2019-01-20T21:47:52.608Z,-1.60
2019-01-20T21:50:19.736Z,-1.60
2019-01-20T21:52:45.880Z,-1.70
2019-01-20T21:55:12.074Z,-1.90
2019-01-20T21:57:38.387Z,-1.90
2019-01-20T22:00:04.667Z,-1.90
2019-01-20T22:02:31.988Z,-1.90
2019-01-20T22:04:58.212Z,-2.00
2019-01-20T22:07:24.439Z,-2.00
2019-01-20T22:09:50.637Z,-2.10
2019-01-20T22:12:16.790Z,-2.10
2019-01-20T22:14:42.901Z,-2.10
2019-01-20T22:17:09.433Z,-2.10
2019-01-20T22:19:35.626Z,-2.00
2019-01-20T22:22:01.932Z,-2.00
2019-01-20T22:24:28.126Z,-2.10
2019-01-20T22:26:54.354Z,-2.00
2019-01-20T22:29:20.530Z,-2.00
2019-01-20T22:31:46.706Z,-1.80
2019-01-20T22:34:12.941Z,-1.70
2019-01-20T22:36:39.185Z,-1.70
2019-01-20T22:39:05.388Z,-1.50
2019-01-20T22:41:31.561Z,-1.60
2019-01-20T22:43:57.849Z,-1.70
2019-01-20T22:46:23.957Z,-2.00
2019-01-20T22:48:51.024Z,-2.30
2019-01-20T22:51:17.185Z,-2.30
2019-01-20T22:53:43.375Z,-2.40
2019-01-20T22:56:09.483Z,-2.50
2019-01-20T22:58:35.710Z,-2.70
2019-01-20T23:01:01.871Z,-2.80
2019-01-20T23:03:28.081Z,-2.70
2019-01-20T23:05:54.195Z,-2.60
2019-01-20T23:08:20.504Z,-2.80
2019-01-20T23:10:46.654Z,-3.00
2019-01-20T23:13:12.864Z,-3.00
2019-01-20T23:15:39.054Z,-3.20
2019-01-20T23:18:05.324Z,-3.00
2019-01-20T23:20:31.515Z,-3.00
2019-01-20T23:22:57.711Z,-2.80
2019-01-20T23:25:23.915Z,-2.70
2019-01-20T23:27:50.102Z,-2.60
2019-01-20T23:30:16.269Z,-2.80
2019-01-20T23:32:43.177Z,-2.80
2019-01-20T23:35:09.352Z,-2.80
2019-01-20T23:37:35.580Z,-2.80
2019-01-20T23:40:01.811Z,-2.80
2019-01-20T23:42:28.058Z,-2.90
2019-01-20T23:44:54.296Z,-2.90
2019-01-20T23:47:20.473Z,-3.10
2019-01-20T23:49:46.777Z,-3.00
2019-01-20T23:52:13.039Z,-2.90
2019-01-20T23:54:39.248Z,-2.80
2019-01-20T23:57:05.421Z,-2.80
2019-01-20T23:59:31.582Z,-2.70
